sensor_id;sensor_type;location;lat;lon;timestamp;P1;durP1;ratioP1;P2;durP2;ratioP2
17763;SDS011;22245;52.832;13.816;2023-03-26T00:01:18;4.70;;;1.80;;
17763;SDS011;22245;52.832;13.816;2023-03-26T00:04:43;5.40;;;2.13;;
17763;SDS011;22245;52.832;13.816;2023-03-26T00:08:07;3.97;;;1.50;;
17763;SDS011;22245;52.832;13.816;2023-03-26T00:11:29;2.97;;;1.30;;
17763;SDS011;22245;52.832;13.816;2023-03-26T00:14:51;3.77;;;1.30;;
17763;SDS011;22245;52.832;13.816;2023-03-26T00:18:12;3.27;;;1.10;;
17763;SDS011;22245;52.832;13.816;2023-03-26T00:21:34;4.23;;;1.30;;
17763;SDS011;22245;52.832;13.816;2023-03-26T00:24:57;2.90;;;1.10;;
17763;SDS011;22245;52.832;13.816;2023-03-26T00:28:20;1.77;;;1.10;;
17763;SDS011;22245;52.832;13.816;2023-03-26T00:31:42;2.17;;;1.03;;
17763;SDS011;22245;52.832;13.816;2023-03-26T00:35:05;2.10;;;1.00;;
17763;SDS011;22245;52.832;13.816;2023-03-26T00:38:27;1.20;;;0.90;;
17763;SDS011;22245;52.832;13.816;2023-03-26T00:41:51;2.00;;;1.00;;
17763;SDS011;22245;52.832;13.816;2023-03-26T00:45:13;2.20;;;1.23;;
17763;SDS011;22245;52.832;13.816;2023-03-26T00:48:36;2.47;;;1.00;;
17763;SDS011;22245;52.832;13.816;2023-03-26T00:52:04;3.00;;;1.27;;
17763;SDS011;22245;52.832;13.816;2023-03-26T00:55:27;3.50;;;1.07;;
17763;SDS011;22245;52.832;13.816;2023-03-26T00:58:51;1.67;;;1.00;;
17763;SDS011;22245;52.832;13.816;2023-03-26T01:02:13;2.53;;;1.00;;
17763;SDS011;22245;52.832;13.816;2023-03-26T01:05:40;1.67;;;1.20;;
17763;SDS011;22245;52.832;13.816;2023-03-26T01:09:11;2.33;;;1.10;;
17763;SDS011;22245;52.832;13.816;2023-03-26T01:12:36;1.70;;;1.10;;
17763;SDS011;22245;52.832;13.816;2023-03-26T01:15:59;1.93;;;0.93;;
17763;SDS011;22245;52.832;13.816;2023-03-26T01:19:24;2.13;;;1.00;;
17763;SDS011;22245;52.832;13.816;2023-03-26T01:22:53;2.47;;;1.00;;
17763;SDS011;22245;52.832;13.816;2023-03-26T01:26:26;2.90;;;0.97;;
17763;SDS011;22245;52.832;13.816;2023-03-26T01:29:59;4.00;;;1.00;;
17763;SDS011;22245;52.832;13.816;2023-03-26T01:33:26;4.07;;;1.27;;
17763;SDS011;22245;52.832;13.816;2023-03-26T01:36:56;2.43;;;1.10;;
17763;SDS011;22245;52.832;13.816;2023-03-26T01:40:33;4.07;;;1.07;;
17763;SDS011;22245;52.832;13.816;2023-03-26T01:44:05;3.57;;;1.07;;
17763;SDS011;22245;52.832;13.816;2023-03-26T01:47:33;5.27;;;1.10;;
17763;SDS011;22245;52.832;13.816;2023-03-26T01:50:56;3.07;;;1.00;;
17763;SDS011;22245;52.832;13.816;2023-03-26T01:54:18;1.27;;;0.90;;
17763;SDS011;22245;52.832;13.816;2023-03-26T01:57:46;2.73;;;1.30;;
17763;SDS011;22245;52.832;13.816;2023-03-26T02:01:18;3.00;;;1.30;;
17763;SDS011;22245;52.832;13.816;2023-03-26T02:04:48;3.30;;;1.40;;
17763;SDS011;22245;52.832;13.816;2023-03-26T02:08:15;3.10;;;1.20;;
17763;SDS011;22245;52.832;13.816;2023-03-26T02:11:41;4.13;;;1.27;;
17763;SDS011;22245;52.832;13.816;2023-03-26T02:15:06;1.90;;;1.37;;
17763;SDS011;22245;52.832;13.816;2023-03-26T02:18:30;3.30;;;1.13;;
17763;SDS011;22245;52.832;13.816;2023-03-26T02:21:56;3.27;;;1.50;;
17763;SDS011;22245;52.832;13.816;2023-03-26T02:25:20;3.93;;;1.33;;
17763;SDS011;22245;52.832;13.816;2023-03-26T02:28:43;2.87;;;1.40;;
17763;SDS011;22245;52.832;13.816;2023-03-26T02:32:08;2.63;;;1.57;;
17763;SDS011;22245;52.832;13.816;2023-03-26T02:35:33;3.83;;;1.40;;
17763;SDS011;22245;52.832;13.816;2023-03-26T02:38:55;4.27;;;1.70;;
17763;SDS011;22245;52.832;13.816;2023-03-26T02:42:21;3.70;;;1.47;;
17763;SDS011;22245;52.832;13.816;2023-03-26T02:45:43;2.40;;;1.53;;
17763;SDS011;22245;52.832;13.816;2023-03-26T02:49:41;3.50;;;1.80;;
17763;SDS011;22245;52.832;13.816;2023-03-26T02:53:09;5.73;;;1.50;;
17763;SDS011;22245;52.832;13.816;2023-03-26T02:56:35;6.20;;;1.87;;
17763;SDS011;22245;52.832;13.816;2023-03-26T03:00:24;3.23;;;1.70;;
17763;SDS011;22245;52.832;13.816;2023-03-26T03:03:45;4.00;;;1.70;;
17763;SDS011;22245;52.832;13.816;2023-03-26T03:07:15;3.90;;;1.67;;
17763;SDS011;22245;52.832;13.816;2023-03-26T03:10:39;2.60;;;1.37;;
17763;SDS011;22245;52.832;13.816;2023-03-26T03:14:08;2.30;;;1.30;;
17763;SDS011;22245;52.832;13.816;2023-03-26T03:17:30;3.70;;;1.50;;
17763;SDS011;22245;52.832;13.816;2023-03-26T03:20:52;2.67;;;1.40;;
17763;SDS011;22245;52.832;13.816;2023-03-26T03:24:14;4.77;;;1.40;;
17763;SDS011;22245;52.832;13.816;2023-03-26T03:27:40;3.67;;;1.23;;
17763;SDS011;22245;52.832;13.816;2023-03-26T03:31:06;2.70;;;1.60;;
17763;SDS011;22245;52.832;13.816;2023-03-26T03:34:29;3.03;;;1.50;;
17763;SDS011;22245;52.832;13.816;2023-03-26T03:37:51;3.83;;;1.30;;
17763;SDS011;22245;52.832;13.816;2023-03-26T03:41:13;2.60;;;1.60;;
17763;SDS011;22245;52.832;13.816;2023-03-26T03:44:39;2.07;;;1.50;;
17763;SDS011;22245;52.832;13.816;2023-03-26T03:48:12;4.07;;;1.50;;
17763;SDS011;22245;52.832;13.816;2023-03-26T03:51:37;2.30;;;1.60;;
17763;SDS011;22245;52.832;13.816;2023-03-26T03:55:08;5.00;;;1.83;;
17763;SDS011;22245;52.832;13.816;2023-03-26T03:58:38;5.37;;;1.70;;
17763;SDS011;22245;52.832;13.816;2023-03-26T04:02:12;4.50;;;1.80;;
17763;SDS011;22245;52.832;13.816;2023-03-26T04:05:47;5.83;;;1.90;;
17763;SDS011;22245;52.832;13.816;2023-03-26T04:09:17;4.90;;;1.80;;
17763;SDS011;22245;52.832;13.816;2023-03-26T04:12:39;3.10;;;1.80;;
17763;SDS011;22245;52.832;13.816;2023-03-26T04:16:06;2.50;;;1.70;;
17763;SDS011;22245;52.832;13.816;2023-03-26T04:19:29;3.57;;;1.87;;
17763;SDS011;22245;52.832;13.816;2023-03-26T04:22:51;2.57;;;1.30;;
17763;SDS011;22245;52.832;13.816;2023-03-26T04:26:17;2.70;;;1.30;;
17763;SDS011;22245;52.832;13.816;2023-03-26T04:29:59;3.47;;;1.07;;
17763;SDS011;22245;52.832;13.816;2023-03-26T04:33:22;3.70;;;1.10;;
17763;SDS011;22245;52.832;13.816;2023-03-26T04:36:47;2.57;;;1.10;;
17763;SDS011;22245;52.832;13.816;2023-03-26T04:40:11;1.67;;;1.20;;
17763;SDS011;22245;52.832;13.816;2023-03-26T04:43:44;1.90;;;1.10;;
17763;SDS011;22245;52.832;13.816;2023-03-26T04:47:32;2.43;;;1.37;;
17763;SDS011;22245;52.832;13.816;2023-03-26T04:50:59;2.50;;;1.33;;
17763;SDS011;22245;52.832;13.816;2023-03-26T04:54:22;3.63;;;1.30;;
17763;SDS011;22245;52.832;13.816;2023-03-26T04:57:53;5.33;;;1.57;;
17763;SDS011;22245;52.832;13.816;2023-03-26T05:01:37;2.50;;;1.50;;
17763;SDS011;22245;52.832;13.816;2023-03-26T05:05:00;4.10;;;1.87;;
17763;SDS011;22245;52.832;13.816;2023-03-26T05:08:24;2.70;;;1.43;;
17763;SDS011;22245;52.832;13.816;2023-03-26T05:11:49;4.17;;;1.77;;
17763;SDS011;22245;52.832;13.816;2023-03-26T05:15:12;3.23;;;1.37;;
17763;SDS011;22245;52.832;13.816;2023-03-26T05:18:49;5.60;;;1.80;;
17763;SDS011;22245;52.832;13.816;2023-03-26T05:22:13;2.47;;;1.50;;
17763;SDS011;22245;52.832;13.816;2023-03-26T05:25:55;3.37;;;1.70;;
17763;SDS011;22245;52.832;13.816;2023-03-26T05:29:19;3.33;;;1.70;;
17763;SDS011;22245;52.832;13.816;2023-03-26T05:32:45;3.67;;;2.20;;
17763;SDS011;22245;52.832;13.816;2023-03-26T05:36:11;2.37;;;1.47;;
17763;SDS011;22245;52.832;13.816;2023-03-26T05:39:51;3.33;;;1.77;;
17763;SDS011;22245;52.832;13.816;2023-03-26T05:43:32;3.03;;;1.40;;
17763;SDS011;22245;52.832;13.816;2023-03-26T05:47:22;3.63;;;1.50;;
17763;SDS011;22245;52.832;13.816;2023-03-26T05:50:44;5.30;;;1.60;;
17763;SDS011;22245;52.832;13.816;2023-03-26T05:54:09;4.80;;;1.83;;
17763;SDS011;22245;52.832;13.816;2023-03-26T05:57:49;4.90;;;1.90;;
17763;SDS011;22245;52.832;13.816;2023-03-26T06:01:30;6.83;;;2.13;;
17763;SDS011;22245;52.832;13.816;2023-03-26T06:05:05;6.93;;;1.80;;
17763;SDS011;22245;52.832;13.816;2023-03-26T06:08:49;5.33;;;1.97;;
17763;SDS011;22245;52.832;13.816;2023-03-26T06:12:22;3.50;;;1.93;;
17763;SDS011;22245;52.832;13.816;2023-03-26T06:15:45;6.17;;;1.93;;
17763;SDS011;22245;52.832;13.816;2023-03-26T06:19:17;4.33;;;1.67;;
17763;SDS011;22245;52.832;13.816;2023-03-26T06:22:50;2.90;;;1.50;;
17763;SDS011;22245;52.832;13.816;2023-03-26T06:26:14;2.80;;;1.70;;
17763;SDS011;22245;52.832;13.816;2023-03-26T06:29:54;4.47;;;1.93;;
17763;SDS011;22245;52.832;13.816;2023-03-26T06:33:31;5.13;;;1.43;;
17763;SDS011;22245;52.832;13.816;2023-03-26T06:36:53;3.53;;;1.53;;
17763;SDS011;22245;52.832;13.816;2023-03-26T06:40:16;6.37;;;2.50;;
17763;SDS011;22245;52.832;13.816;2023-03-26T06:43:52;3.63;;;1.90;;
17763;SDS011;22245;52.832;13.816;2023-03-26T06:47:35;3.03;;;1.63;;
17763;SDS011;22245;52.832;13.816;2023-03-26T06:51:15;3.63;;;1.50;;
17763;SDS011;22245;52.832;13.816;2023-03-26T06:54:55;3.80;;;1.73;;
17763;SDS011;22245;52.832;13.816;2023-03-26T06:58:38;6.37;;;1.77;;
17763;SDS011;22245;52.832;13.816;2023-03-26T07:02:19;5.80;;;1.90;;
17763;SDS011;22245;52.832;13.816;2023-03-26T07:05:59;3.63;;;1.53;;
17763;SDS011;22245;52.832;13.816;2023-03-26T07:09:54;4.20;;;1.53;;
17763;SDS011;22245;52.832;13.816;2023-03-26T07:13:43;8.53;;;1.70;;
17763;SDS011;22245;52.832;13.816;2023-03-26T07:17:25;4.40;;;1.40;;
17763;SDS011;22245;52.832;13.816;2023-03-26T07:20:55;2.37;;;1.10;;
17763;SDS011;22245;52.832;13.816;2023-03-26T07:24:21;4.03;;;1.30;;
17763;SDS011;22245;52.832;13.816;2023-03-26T07:28:10;4.90;;;1.30;;
17763;SDS011;22245;52.832;13.816;2023-03-26T07:31:59;1.80;;;1.13;;
17763;SDS011;22245;52.832;13.816;2023-03-26T07:35:34;5.00;;;1.50;;
17763;SDS011;22245;52.832;13.816;2023-03-26T07:39:20;6.20;;;1.70;;
17763;SDS011;22245;52.832;13.816;2023-03-26T07:43:26;2.80;;;0.90;;
17763;SDS011;22245;52.832;13.816;2023-03-26T07:47:06;1.20;;;0.80;;
17763;SDS011;22245;52.832;13.816;2023-03-26T07:50:57;1.50;;;0.97;;
17763;SDS011;22245;52.832;13.816;2023-03-26T07:54:38;3.53;;;1.10;;
17763;SDS011;22245;52.832;13.816;2023-03-26T07:58:03;3.63;;;1.10;;
17763;SDS011;22245;52.832;13.816;2023-03-26T08:01:55;3.47;;;1.50;;
17763;SDS011;22245;52.832;13.816;2023-03-26T08:05:49;5.90;;;1.50;;
17763;SDS011;22245;52.832;13.816;2023-03-26T08:09:24;2.53;;;1.20;;
17763;SDS011;22245;52.832;13.816;2023-03-26T08:13:20;6.20;;;1.53;;
17763;SDS011;22245;52.832;13.816;2023-03-26T08:16:47;3.60;;;1.70;;
17763;SDS011;22245;52.832;13.816;2023-03-26T08:20:19;3.57;;;1.40;;
17763;SDS011;22245;52.832;13.816;2023-03-26T08:23:53;5.07;;;1.80;;
17763;SDS011;22245;52.832;13.816;2023-03-26T08:27:21;5.30;;;1.17;;
17763;SDS011;22245;52.832;13.816;2023-03-26T08:30:50;3.93;;;1.40;;
17763;SDS011;22245;52.832;13.816;2023-03-26T08:34:14;3.83;;;1.70;;
17763;SDS011;22245;52.832;13.816;2023-03-26T08:37:36;4.17;;;1.20;;
17763;SDS011;22245;52.832;13.816;2023-03-26T08:53:16;2.23;;;0.90;;
17763;SDS011;22245;52.832;13.816;2023-03-26T08:57:13;11.07;;;2.40;;
17763;SDS011;22245;52.832;13.816;2023-03-26T09:00:50;2.50;;;1.43;;
17763;SDS011;22245;52.832;13.816;2023-03-26T09:08:36;3.87;;;1.50;;
17763;SDS011;22245;52.832;13.816;2023-03-26T09:16:51;3.33;;;1.47;;
17763;SDS011;22245;52.832;13.816;2023-03-26T09:28:58;4.80;;;1.20;;
17763;SDS011;22245;52.832;13.816;2023-03-26T09:32:55;3.77;;;1.80;;
17763;SDS011;22245;52.832;13.816;2023-03-26T09:36:38;3.97;;;1.20;;
17763;SDS011;22245;52.832;13.816;2023-03-26T09:40:14;2.30;;;0.90;;
17763;SDS011;22245;52.832;13.816;2023-03-26T09:43:41;4.47;;;1.20;;
17763;SDS011;22245;52.832;13.816;2023-03-26T09:47:25;3.73;;;1.33;;
17763;SDS011;22245;52.832;13.816;2023-03-26T09:51:22;2.00;;;1.17;;
17763;SDS011;22245;52.832;13.816;2023-03-26T09:58:54;3.83;;;1.40;;
17763;SDS011;22245;52.832;13.816;2023-03-26T10:10:06;6.13;;;2.00;;
17763;SDS011;22245;52.832;13.816;2023-03-26T10:13:39;6.47;;;1.47;;
17763;SDS011;22245;52.832;13.816;2023-03-26T10:17:21;7.33;;;1.43;;
17763;SDS011;22245;52.832;13.816;2023-03-26T10:21:00;4.60;;;1.37;;
17763;SDS011;22245;52.832;13.816;2023-03-26T10:24:31;3.40;;;1.00;;
17763;SDS011;22245;52.832;13.816;2023-03-26T10:28:18;4.83;;;1.40;;
17763;SDS011;22245;52.832;13.816;2023-03-26T10:31:50;4.27;;;1.63;;
17763;SDS011;22245;52.832;13.816;2023-03-26T10:35:20;4.17;;;1.40;;
17763;SDS011;22245;52.832;13.816;2023-03-26T10:38:55;2.50;;;1.10;;
17763;SDS011;22245;52.832;13.816;2023-03-26T10:42:31;4.47;;;1.40;;
17763;SDS011;22245;52.832;13.816;2023-03-26T10:46:12;4.70;;;1.23;;
17763;SDS011;22245;52.832;13.816;2023-03-26T10:49:59;4.90;;;1.30;;
17763;SDS011;22245;52.832;13.816;2023-03-26T10:53:42;5.17;;;1.40;;
17763;SDS011;22245;52.832;13.816;2023-03-26T10:57:15;6.40;;;1.70;;
17763;SDS011;22245;52.832;13.816;2023-03-26T11:00:46;3.13;;;1.20;;
17763;SDS011;22245;52.832;13.816;2023-03-26T11:04:18;5.73;;;1.50;;
17763;SDS011;22245;52.832;13.816;2023-03-26T11:07:47;4.07;;;1.27;;
17763;SDS011;22245;52.832;13.816;2023-03-26T11:11:18;4.67;;;1.27;;
17763;SDS011;22245;52.832;13.816;2023-03-26T11:14:48;3.13;;;1.20;;
17763;SDS011;22245;52.832;13.816;2023-03-26T11:18:17;5.97;;;1.77;;
17763;SDS011;22245;52.832;13.816;2023-03-26T11:21:48;4.53;;;1.40;;
17763;SDS011;22245;52.832;13.816;2023-03-26T11:25:26;6.17;;;1.73;;
17763;SDS011;22245;52.832;13.816;2023-03-26T11:29:20;4.10;;;1.63;;
17763;SDS011;22245;52.832;13.816;2023-03-26T11:33:00;5.97;;;1.60;;
17763;SDS011;22245;52.832;13.816;2023-03-26T11:36:28;5.23;;;1.50;;
17763;SDS011;22245;52.832;13.816;2023-03-26T11:39:55;3.90;;;1.90;;
17763;SDS011;22245;52.832;13.816;2023-03-26T11:43:21;5.60;;;1.90;;
17763;SDS011;22245;52.832;13.816;2023-03-26T11:46:48;4.17;;;1.50;;
17763;SDS011;22245;52.832;13.816;2023-03-26T11:50:15;4.13;;;1.37;;
17763;SDS011;22245;52.832;13.816;2023-03-26T11:53:43;4.60;;;1.87;;
17763;SDS011;22245;52.832;13.816;2023-03-26T11:57:06;3.87;;;1.40;;
17763;SDS011;22245;52.832;13.816;2023-03-26T12:00:33;4.33;;;1.47;;
17763;SDS011;22245;52.832;13.816;2023-03-26T12:03:55;5.33;;;1.33;;
17763;SDS011;22245;52.832;13.816;2023-03-26T12:07:21;7.17;;;1.87;;
17763;SDS011;22245;52.832;13.816;2023-03-26T12:10:43;5.10;;;1.90;;
17763;SDS011;22245;52.832;13.816;2023-03-26T12:14:15;6.30;;;2.00;;
17763;SDS011;22245;52.832;13.816;2023-03-26T12:17:38;4.67;;;1.93;;
17763;SDS011;22245;52.832;13.816;2023-03-26T12:21:02;3.43;;;1.40;;
17763;SDS011;22245;52.832;13.816;2023-03-26T12:24:30;5.10;;;2.03;;
17763;SDS011;22245;52.832;13.816;2023-03-26T12:27:56;5.40;;;1.50;;
17763;SDS011;22245;52.832;13.816;2023-03-26T12:31:21;4.00;;;1.90;;
17763;SDS011;22245;52.832;13.816;2023-03-26T12:34:45;4.27;;;1.43;;
17763;SDS011;22245;52.832;13.816;2023-03-26T12:38:12;4.90;;;1.40;;
17763;SDS011;22245;52.832;13.816;2023-03-26T12:41:39;6.60;;;1.60;;
17763;SDS011;22245;52.832;13.816;2023-03-26T12:45:21;4.43;;;1.40;;
17763;SDS011;22245;52.832;13.816;2023-03-26T12:48:48;4.17;;;1.40;;
17763;SDS011;22245;52.832;13.816;2023-03-26T12:52:17;3.10;;;1.20;;
17763;SDS011;22245;52.832;13.816;2023-03-26T12:55:50;4.67;;;1.23;;
17763;SDS011;22245;52.832;13.816;2023-03-26T12:59:27;6.63;;;1.30;;
17763;SDS011;22245;52.832;13.816;2023-03-26T13:03:09;3.43;;;1.67;;
17763;SDS011;22245;52.832;13.816;2023-03-26T13:06:43;5.80;;;1.57;;
17763;SDS011;22245;52.832;13.816;2023-03-26T13:10:25;4.37;;;1.50;;
17763;SDS011;22245;52.832;13.816;2023-03-26T13:13:59;4.13;;;1.00;;
17763;SDS011;22245;52.832;13.816;2023-03-26T13:17:37;3.93;;;1.50;;
17763;SDS011;22245;52.832;13.816;2023-03-26T13:21:06;3.13;;;1.20;;
17763;SDS011;22245;52.832;13.816;2023-03-26T13:24:37;3.00;;;1.30;;
17763;SDS011;22245;52.832;13.816;2023-03-26T13:28:10;4.43;;;1.90;;
17763;SDS011;22245;52.832;13.816;2023-03-26T13:31:41;3.22;;;1.40;;
17763;SDS011;22245;52.832;13.816;2023-03-26T13:35:19;3.33;;;1.47;;
17763;SDS011;22245;52.832;13.816;2023-03-26T13:38:51;2.73;;;1.03;;
17763;SDS011;22245;52.832;13.816;2023-03-26T13:42:26;3.03;;;1.38;;
17763;SDS011;22245;52.832;13.816;2023-03-26T13:46:02;3.70;;;1.43;;
17763;SDS011;22245;52.832;13.816;2023-03-26T13:49:32;3.97;;;1.60;;
17763;SDS011;22245;52.832;13.816;2023-03-26T13:53:00;4.03;;;1.30;;
17763;SDS011;22245;52.832;13.816;2023-03-26T13:56:28;2.77;;;1.33;;
17763;SDS011;22245;52.832;13.816;2023-03-26T13:59:55;5.37;;;1.30;;
17763;SDS011;22245;52.832;13.816;2023-03-26T14:03:23;4.78;;;1.30;;
17763;SDS011;22245;52.832;13.816;2023-03-26T14:06:50;5.53;;;1.67;;
17763;SDS011;22245;52.832;13.816;2023-03-26T14:10:20;3.47;;;1.23;;
17763;SDS011;22245;52.832;13.816;2023-03-26T14:13:46;4.15;;;1.40;;
17763;SDS011;22245;52.832;13.816;2023-03-26T14:17:17;5.15;;;2.05;;
17763;SDS011;22245;52.832;13.816;2023-03-26T14:20:50;3.40;;;1.52;;
17763;SDS011;22245;52.832;13.816;2023-03-26T14:24:33;1.80;;;1.17;;
17763;SDS011;22245;52.832;13.816;2023-03-26T14:28:26;4.43;;;1.10;;
17763;SDS011;22245;52.832;13.816;2023-03-26T14:32:08;4.63;;;1.25;;
17763;SDS011;22245;52.832;13.816;2023-03-26T14:35:45;3.47;;;1.60;;
17763;SDS011;22245;52.832;13.816;2023-03-26T14:39:21;7.83;;;1.80;;
17763;SDS011;22245;52.832;13.816;2023-03-26T14:43:03;6.13;;;1.25;;
17763;SDS011;22245;52.832;13.816;2023-03-26T14:46:43;4.83;;;1.50;;
17763;SDS011;22245;52.832;13.816;2023-03-26T14:50:34;6.03;;;1.50;;
17763;SDS011;22245;52.832;13.816;2023-03-26T14:54:07;5.37;;;1.73;;
17763;SDS011;22245;52.832;13.816;2023-03-26T14:57:43;2.95;;;1.40;;
17763;SDS011;22245;52.832;13.816;2023-03-26T15:01:20;3.33;;;1.45;;
17763;SDS011;22245;52.832;13.816;2023-03-26T15:04:50;4.65;;;1.73;;
17763;SDS011;22245;52.832;13.816;2023-03-26T15:08:40;3.05;;;1.20;;
17763;SDS011;22245;52.832;13.816;2023-03-26T15:12:36;4.47;;;1.30;;
17763;SDS011;22245;52.832;13.816;2023-03-26T15:16:11;2.63;;;1.23;;
17763;SDS011;22245;52.832;13.816;2023-03-26T15:31:56;5.47;;;1.30;;
17763;SDS011;22245;52.832;13.816;2023-03-26T15:39:39;5.60;;;1.63;;
17763;SDS011;22245;52.832;13.816;2023-03-26T15:43:19;3.22;;;1.35;;
17763;SDS011;22245;52.832;13.816;2023-03-26T15:46:52;6.13;;;2.00;;
17763;SDS011;22245;52.832;13.816;2023-03-26T15:54:08;3.10;;;1.30;;
17763;SDS011;22245;52.832;13.816;2023-03-26T15:57:43;3.53;;;1.20;;
17763;SDS011;22245;52.832;13.816;2023-03-26T16:01:13;3.70;;;1.48;;
17763;SDS011;22245;52.832;13.816;2023-03-26T16:04:43;5.13;;;1.60;;
17763;SDS011;22245;52.832;13.816;2023-03-26T16:08:13;4.20;;;1.20;;
17763;SDS011;22245;52.832;13.816;2023-03-26T16:11:47;2.90;;;1.02;;
17763;SDS011;22245;52.832;13.816;2023-03-26T16:15:25;3.33;;;1.30;;
17763;SDS011;22245;52.832;13.816;2023-03-26T16:18:54;3.55;;;1.50;;
17763;SDS011;22245;52.832;13.816;2023-03-26T16:22:34;4.75;;;1.88;;
17763;SDS011;22245;52.832;13.816;2023-03-26T16:26:15;5.78;;;1.73;;
17763;SDS011;22245;52.832;13.816;2023-03-26T16:30:05;6.38;;;1.70;;
17763;SDS011;22245;52.832;13.816;2023-03-26T16:33:51;6.65;;;2.45;;
17763;SDS011;22245;52.832;13.816;2023-03-26T16:37:33;4.25;;;1.70;;
17763;SDS011;22245;52.832;13.816;2023-03-26T16:40:58;3.55;;;1.90;;
17763;SDS011;22245;52.832;13.816;2023-03-26T16:44:25;4.63;;;1.70;;
17763;SDS011;22245;52.832;13.816;2023-03-26T16:47:59;3.35;;;1.75;;
17763;SDS011;22245;52.832;13.816;2023-03-26T16:51:33;3.75;;;1.80;;
17763;SDS011;22245;52.832;13.816;2023-03-26T16:55:16;5.53;;;2.03;;
17763;SDS011;22245;52.832;13.816;2023-03-26T16:58:51;5.55;;;2.33;;
17763;SDS011;22245;52.832;13.816;2023-03-26T17:02:17;3.85;;;2.13;;
17763;SDS011;22245;52.832;13.816;2023-03-26T17:05:56;6.45;;;1.60;;
17763;SDS011;22245;52.832;13.816;2023-03-26T17:09:34;4.55;;;1.60;;
17763;SDS011;22245;52.832;13.816;2023-03-26T17:13:06;4.65;;;2.15;;
17763;SDS011;22245;52.832;13.816;2023-03-26T17:16:36;3.93;;;2.10;;
17763;SDS011;22245;52.832;13.816;2023-03-26T17:20:06;6.93;;;2.13;;
17763;SDS011;22245;52.832;13.816;2023-03-26T17:23:41;10.93;;;4.80;;
17763;SDS011;22245;52.832;13.816;2023-03-26T17:27:25;6.32;;;3.17;;
17763;SDS011;22245;52.832;13.816;2023-03-26T17:30:59;6.38;;;3.55;;
17763;SDS011;22245;52.832;13.816;2023-03-26T17:42:25;19.40;;;10.45;;
17763;SDS011;22245;52.832;13.816;2023-03-26T17:45:48;9.83;;;5.20;;
17763;SDS011;22245;52.832;13.816;2023-03-26T17:49:23;7.83;;;4.30;;
17763;SDS011;22245;52.832;13.816;2023-03-26T17:52:52;9.73;;;4.30;;
17763;SDS011;22245;52.832;13.816;2023-03-26T17:56:17;5.63;;;3.07;;
17763;SDS011;22245;52.832;13.816;2023-03-26T17:59:54;5.77;;;2.30;;
17763;SDS011;22245;52.832;13.816;2023-03-26T18:03:19;6.30;;;2.70;;
17763;SDS011;22245;52.832;13.816;2023-03-26T18:06:48;6.13;;;2.10;;
17763;SDS011;22245;52.832;13.816;2023-03-26T18:10:31;5.67;;;2.33;;
17763;SDS011;22245;52.832;13.816;2023-03-26T18:14:10;7.67;;;2.40;;
17763;SDS011;22245;52.832;13.816;2023-03-26T18:17:47;6.03;;;2.63;;
17763;SDS011;22245;52.832;13.816;2023-03-26T18:21:10;5.67;;;2.20;;
17763;SDS011;22245;52.832;13.816;2023-03-26T18:24:38;6.50;;;2.00;;
17763;SDS011;22245;52.832;13.816;2023-03-26T18:28:01;4.57;;;2.10;;
17763;SDS011;22245;52.832;13.816;2023-03-26T18:31:25;5.50;;;2.00;;
17763;SDS011;22245;52.832;13.816;2023-03-26T18:34:49;5.00;;;2.17;;
17763;SDS011;22245;52.832;13.816;2023-03-26T18:38:17;6.87;;;2.63;;
17763;SDS011;22245;52.832;13.816;2023-03-26T18:41:56;7.57;;;2.90;;
17763;SDS011;22245;52.832;13.816;2023-03-26T18:45:22;10.10;;;3.80;;
17763;SDS011;22245;52.832;13.816;2023-03-26T18:48:46;12.73;;;4.77;;
17763;SDS011;22245;52.832;13.816;2023-03-26T18:52:09;14.10;;;4.70;;
17763;SDS011;22245;52.832;13.816;2023-03-26T18:55:37;13.10;;;4.93;;
17763;SDS011;22245;52.832;13.816;2023-03-26T18:59:00;11.33;;;4.40;;
17763;SDS011;22245;52.832;13.816;2023-03-26T19:02:23;9.10;;;3.07;;
17763;SDS011;22245;52.832;13.816;2023-03-26T19:05:46;7.60;;;2.70;;
17763;SDS011;22245;52.832;13.816;2023-03-26T19:09:11;10.40;;;2.80;;
17763;SDS011;22245;52.832;13.816;2023-03-26T19:12:53;13.17;;;2.73;;
17763;SDS011;22245;52.832;13.816;2023-03-26T19:16:18;16.97;;;2.67;;
17763;SDS011;22245;52.832;13.816;2023-03-26T19:19:43;12.37;;;2.93;;
17763;SDS011;22245;52.832;13.816;2023-03-26T19:23:05;11.00;;;2.57;;
17763;SDS011;22245;52.832;13.816;2023-03-26T19:26:31;16.77;;;2.97;;
17763;SDS011;22245;52.832;13.816;2023-03-26T19:29:53;10.13;;;2.90;;
17763;SDS011;22245;52.832;13.816;2023-03-26T19:33:17;8.77;;;2.70;;
17763;SDS011;22245;52.832;13.816;2023-03-26T19:36:47;10.20;;;2.83;;
17763;SDS011;22245;52.832;13.816;2023-03-26T19:40:17;21.53;;;6.87;;
17763;SDS011;22245;52.832;13.816;2023-03-26T19:43:42;19.07;;;3.67;;
17763;SDS011;22245;52.832;13.816;2023-03-26T19:47:14;16.40;;;3.73;;
17763;SDS011;22245;52.832;13.816;2023-03-26T19:50:39;13.17;;;3.50;;
17763;SDS011;22245;52.832;13.816;2023-03-26T19:54:03;12.77;;;3.27;;
17763;SDS011;22245;52.832;13.816;2023-03-26T19:57:35;12.87;;;3.20;;
17763;SDS011;22245;52.832;13.816;2023-03-26T20:00:59;12.47;;;2.80;;
17763;SDS011;22245;52.832;13.816;2023-03-26T20:04:21;14.87;;;2.80;;
17763;SDS011;22245;52.832;13.816;2023-03-26T20:07:42;19.47;;;3.33;;
17763;SDS011;22245;52.832;13.816;2023-03-26T20:11:04;9.20;;;2.63;;
17763;SDS011;22245;52.832;13.816;2023-03-26T20:14:33;8.93;;;2.87;;
17763;SDS011;22245;52.832;13.816;2023-03-26T20:17:56;10.47;;;2.87;;
17763;SDS011;22245;52.832;13.816;2023-03-26T20:21:20;16.87;;;2.73;;
17763;SDS011;22245;52.832;13.816;2023-03-26T20:24:42;10.60;;;2.93;;
17763;SDS011;22245;52.832;13.816;2023-03-26T20:28:04;13.77;;;2.57;;
17763;SDS011;22245;52.832;13.816;2023-03-26T20:31:27;16.53;;;3.50;;
17763;SDS011;22245;52.832;13.816;2023-03-26T20:34:51;13.53;;;2.70;;
17763;SDS011;22245;52.832;13.816;2023-03-26T20:38:13;9.37;;;3.13;;
17763;SDS011;22245;52.832;13.816;2023-03-26T20:41:37;12.60;;;2.47;;
17763;SDS011;22245;52.832;13.816;2023-03-26T20:45:08;14.70;;;2.17;;
17763;SDS011;22245;52.832;13.816;2023-03-26T20:48:37;14.70;;;3.17;;
17763;SDS011;22245;52.832;13.816;2023-03-26T20:52:00;6.80;;;2.47;;
17763;SDS011;22245;52.832;13.816;2023-03-26T20:55:22;11.67;;;2.80;;
17763;SDS011;22245;52.832;13.816;2023-03-26T20:58:45;9.03;;;3.23;;
17763;SDS011;22245;52.832;13.816;2023-03-26T21:02:16;16.13;;;2.63;;
17763;SDS011;22245;52.832;13.816;2023-03-26T21:05:39;13.60;;;2.90;;
17763;SDS011;22245;52.832;13.816;2023-03-26T21:09:03;13.33;;;2.90;;
17763;SDS011;22245;52.832;13.816;2023-03-26T21:12:26;11.33;;;2.60;;
17763;SDS011;22245;52.832;13.816;2023-03-26T21:15:52;11.33;;;3.40;;
17763;SDS011;22245;52.832;13.816;2023-03-26T21:19:15;13.73;;;3.43;;
17763;SDS011;22245;52.832;13.816;2023-03-26T21:22:39;14.23;;;2.87;;
17763;SDS011;22245;52.832;13.816;2023-03-26T21:26:08;12.27;;;2.47;;
17763;SDS011;22245;52.832;13.816;2023-03-26T21:29:35;8.60;;;2.30;;
17763;SDS011;22245;52.832;13.816;2023-03-26T21:32:57;11.17;;;2.30;;
17763;SDS011;22245;52.832;13.816;2023-03-26T21:36:20;12.73;;;2.73;;
17763;SDS011;22245;52.832;13.816;2023-03-26T21:39:42;13.70;;;2.33;;
17763;SDS011;22245;52.832;13.816;2023-03-26T21:43:09;8.67;;;2.07;;
17763;SDS011;22245;52.832;13.816;2023-03-26T21:46:32;9.83;;;2.00;;
17763;SDS011;22245;52.832;13.816;2023-03-26T21:49:54;12.87;;;2.30;;
17763;SDS011;22245;52.832;13.816;2023-03-26T21:53:16;10.13;;;1.70;;
17763;SDS011;22245;52.832;13.816;2023-03-26T21:56:40;8.57;;;2.10;;
17763;SDS011;22245;52.832;13.816;2023-03-26T22:00:11;13.93;;;2.43;;